sensor_id;sensor_type;location;lat;lon;timestamp;temperature;humidity
67641;SHT31;54434;50.096;20.082;2023-11-21T00:02:06;8.60;85.62
67641;SHT31;54434;50.096;20.082;2023-11-21T00:04:42;8.56;85.69
67641;SHT31;54434;50.096;20.082;2023-11-21T00:07:19;8.53;85.71
67641;SHT31;54434;50.096;20.082;2023-11-21T00:09:56;8.50;85.79
67641;SHT31;54434;50.096;20.082;2023-11-21T00:12:33;8.47;85.81
67641;SHT31;54434;50.096;20.082;2023-11-21T00:15:13;8.44;85.94
67641;SHT31;54434;50.096;20.082;2023-11-21T00:17:51;8.41;86.07
67641;SHT31;54434;50.096;20.082;2023-11-21T00:20:27;8.40;86.21
67641;SHT31;54434;50.096;20.082;2023-11-21T00:23:04;8.40;86.34
67641;SHT31;54434;50.096;20.082;2023-11-21T00:25:41;8.40;86.39
67641;SHT31;54434;50.096;20.082;2023-11-21T00:28:18;8.42;86.40
67641;SHT31;54434;50.096;20.082;2023-11-21T00:30:55;8.43;86.48
67641;SHT31;54434;50.096;20.082;2023-11-21T00:33:31;8.44;86.50
67641;SHT31;54434;50.096;20.082;2023-11-21T00:36:09;8.45;86.50
67641;SHT31;54434;50.096;20.082;2023-11-21T00:38:46;8.44;86.50
67641;SHT31;54434;50.096;20.082;2023-11-21T00:41:22;8.45;86.55
67641;SHT31;54434;50.096;20.082;2023-11-21T00:44:01;8.47;86.52
67641;SHT31;54434;50.096;20.082;2023-11-21T00:46:39;8.46;86.53
67641;SHT31;54434;50.096;20.082;2023-11-21T00:49:16;8.47;86.51
67641;SHT31;54434;50.096;20.082;2023-11-21T00:51:53;8.45;86.58
67641;SHT31;54434;50.096;20.082;2023-11-21T00:54:30;8.45;86.60
67641;SHT31;54434;50.096;20.082;2023-11-21T00:57:09;8.45;86.60
67641;SHT31;54434;50.096;20.082;2023-11-21T00:59:45;8.45;86.60
67641;SHT31;54434;50.096;20.082;2023-11-21T01:02:21;8.45;86.58
67641;SHT31;54434;50.096;20.082;2023-11-21T01:04:58;8.45;86.57
67641;SHT31;54434;50.096;20.082;2023-11-21T01:07:35;8.45;86.51
67641;SHT31;54434;50.096;20.082;2023-11-21T01:10:12;8.45;86.50
67641;SHT31;54434;50.096;20.082;2023-11-21T01:12:49;8.46;86.48
67641;SHT31;54434;50.096;20.082;2023-11-21T01:15:26;8.47;86.44
67641;SHT31;54434;50.096;20.082;2023-11-21T01:18:03;8.47;86.43
67641;SHT31;54434;50.096;20.082;2023-11-21T01:20:40;8.49;86.40
67641;SHT31;54434;50.096;20.082;2023-11-21T01:23:18;8.49;86.40
67641;SHT31;54434;50.096;20.082;2023-11-21T01:25:57;8.50;86.40
67641;SHT31;54434;50.096;20.082;2023-11-21T01:28:33;8.49;86.35
67641;SHT31;54434;50.096;20.082;2023-11-21T01:31:10;8.49;86.34
67641;SHT31;54434;50.096;20.082;2023-11-21T01:33:46;8.48;86.35
67641;SHT31;54434;50.096;20.082;2023-11-21T01:36:23;8.47;86.32
67641;SHT31;54434;50.096;20.082;2023-11-21T01:39:05;8.47;86.32
67641;SHT31;54434;50.096;20.082;2023-11-21T01:41:40;8.46;86.31
67641;SHT31;54434;50.096;20.082;2023-11-21T01:44:17;8.46;86.31
67641;SHT31;54434;50.096;20.082;2023-11-21T01:46:53;8.49;86.29
67641;SHT31;54434;50.096;20.082;2023-11-21T01:49:30;8.49;86.25
67641;SHT31;54434;50.096;20.082;2023-11-21T01:52:10;8.50;86.21
67641;SHT31;54434;50.096;20.082;2023-11-21T01:54:47;8.50;86.20
67641;SHT31;54434;50.096;20.082;2023-11-21T01:57:24;8.50;86.18
67641;SHT31;54434;50.096;20.082;2023-11-21T02:00:01;8.51;86.11
67641;SHT31;54434;50.096;20.082;2023-11-21T02:02:48;8.52;86.10
67641;SHT31;54434;50.096;20.082;2023-11-21T02:05:25;8.51;86.06
67641;SHT31;54434;50.096;20.082;2023-11-21T02:08:03;8.52;85.99
67641;SHT31;54434;50.096;20.082;2023-11-21T02:10:41;8.52;85.91
67641;SHT31;54434;50.096;20.082;2023-11-21T02:13:18;8.53;85.90
67641;SHT31;54434;50.096;20.082;2023-11-21T02:15:54;8.53;85.87
67641;SHT31;54434;50.096;20.082;2023-11-21T02:18:31;8.54;85.84
67641;SHT31;54434;50.096;20.082;2023-11-21T02:21:09;8.54;85.80
67641;SHT31;54434;50.096;20.082;2023-11-21T02:23:45;8.53;85.83
67641;SHT31;54434;50.096;20.082;2023-11-21T02:26:23;8.54;85.90
67641;SHT31;54434;50.096;20.082;2023-11-21T02:28:59;8.55;85.90
67641;SHT31;54434;50.096;20.082;2023-11-21T02:31:36;8.56;85.90
67641;SHT31;54434;50.096;20.082;2023-11-21T02:34:20;8.59;85.91
67641;SHT31;54434;50.096;20.082;2023-11-21T02:36:57;8.60;85.96
67641;SHT31;54434;50.096;20.082;2023-11-21T02:39:34;8.60;86.00
67641;SHT31;54434;50.096;20.082;2023-11-21T02:42:12;8.59;86.07
67641;SHT31;54434;50.096;20.082;2023-11-21T02:44:48;8.59;86.10
67641;SHT31;54434;50.096;20.082;2023-11-21T02:47:25;8.59;86.10
67641;SHT31;54434;50.096;20.082;2023-11-21T02:50:02;8.58;86.13
67641;SHT31;54434;50.096;20.082;2023-11-21T02:52:40;8.57;86.16
67641;SHT31;54434;50.096;20.082;2023-11-21T02:55:18;8.57;86.12
67641;SHT31;54434;50.096;20.082;2023-11-21T02:57:57;8.58;86.10
67641;SHT31;54434;50.096;20.082;2023-11-21T03:00:35;8.57;86.18
67641;SHT31;54434;50.096;20.082;2023-11-21T03:03:14;8.57;86.12
67641;SHT31;54434;50.096;20.082;2023-11-21T03:05:52;8.56;86.04
67641;SHT31;54434;50.096;20.082;2023-11-21T03:08:28;8.56;85.99
67641;SHT31;54434;50.096;20.082;2023-11-21T03:11:05;8.55;85.85
67641;SHT31;54434;50.096;20.082;2023-11-21T03:13:41;8.54;85.72
67641;SHT31;54434;50.096;20.082;2023-11-21T03:16:18;8.53;85.55
67641;SHT31;54434;50.096;20.082;2023-11-21T03:18:55;8.54;85.51
67641;SHT31;54434;50.096;20.082;2023-11-21T03:21:32;8.54;85.38
67641;SHT31;54434;50.096;20.082;2023-11-21T03:24:09;8.54;85.20
67641;SHT31;54434;50.096;20.082;2023-11-21T03:26:49;8.53;85.16
67641;SHT31;54434;50.096;20.082;2023-11-21T03:29:25;8.51;84.98
67641;SHT31;54434;50.096;20.082;2023-11-21T03:32:02;8.51;84.95
67641;SHT31;54434;50.096;20.082;2023-11-21T03:34:54;8.50;84.99
67641;SHT31;54434;50.096;20.082;2023-11-21T03:37:33;8.50;84.92
67641;SHT31;54434;50.096;20.082;2023-11-21T03:40:14;8.49;84.99
67641;SHT31;54434;50.096;20.082;2023-11-21T03:42:50;8.49;84.98
67641;SHT31;54434;50.096;20.082;2023-11-21T03:45:27;8.48;84.96
67641;SHT31;54434;50.096;20.082;2023-11-21T03:48:04;8.48;84.93
67641;SHT31;54434;50.096;20.082;2023-11-21T03:50:42;8.47;84.85
67641;SHT31;54434;50.096;20.082;2023-11-21T03:53:19;8.46;84.81
67641;SHT31;54434;50.096;20.082;2023-11-21T03:55:55;8.45;84.86
67641;SHT31;54434;50.096;20.082;2023-11-21T03:58:34;8.44;84.91
67641;SHT31;54434;50.096;20.082;2023-11-21T04:01:11;8.44;84.86
67641;SHT31;54434;50.096;20.082;2023-11-21T04:03:54;8.43;84.80
67641;SHT31;54434;50.096;20.082;2023-11-21T04:06:31;8.41;84.83
67641;SHT31;54434;50.096;20.082;2023-11-21T04:09:09;8.41;84.82
67641;SHT31;54434;50.096;20.082;2023-11-21T04:11:46;8.40;84.80
67641;SHT31;54434;50.096;20.082;2023-11-21T04:14:22;8.40;84.80
67641;SHT31;54434;50.096;20.082;2023-11-21T04:16:59;8.39;84.73
67641;SHT31;54434;50.096;20.082;2023-11-21T04:19:36;8.37;84.62
67641;SHT31;54434;50.096;20.082;2023-11-21T04:22:13;8.36;84.68
67641;SHT31;54434;50.096;20.082;2023-11-21T04:24:49;8.36;84.70
67641;SHT31;54434;50.096;20.082;2023-11-21T04:27:27;8.35;84.62
67641;SHT31;54434;50.096;20.082;2023-11-21T04:30:05;8.34;84.60
67641;SHT31;54434;50.096;20.082;2023-11-21T04:32:43;8.32;84.60
67641;SHT31;54434;50.096;20.082;2023-11-21T04:35:20;8.32;84.55
67641;SHT31;54434;50.096;20.082;2023-11-21T04:37:57;8.32;84.60
67641;SHT31;54434;50.096;20.082;2023-11-21T04:40:34;8.29;84.58
67641;SHT31;54434;50.096;20.082;2023-11-21T04:43:11;8.29;84.59
67641;SHT31;54434;50.096;20.082;2023-11-21T04:45:48;8.28;84.60
67641;SHT31;54434;50.096;20.082;2023-11-21T04:48:25;8.27;84.65
67641;SHT31;54434;50.096;20.082;2023-11-21T04:51:01;8.26;84.68
67641;SHT31;54434;50.096;20.082;2023-11-21T04:53:40;8.25;84.70
67641;SHT31;54434;50.096;20.082;2023-11-21T04:56:17;8.24;84.76
67641;SHT31;54434;50.096;20.082;2023-11-21T04:58:54;8.22;84.80
67641;SHT31;54434;50.096;20.082;2023-11-21T05:01:31;8.22;84.81
67641;SHT31;54434;50.096;20.082;2023-11-21T05:04:08;8.21;84.84
67641;SHT31;54434;50.096;20.082;2023-11-21T05:06:46;8.21;84.84
67641;SHT31;54434;50.096;20.082;2023-11-21T05:09:23;8.19;84.82
67641;SHT31;54434;50.096;20.082;2023-11-21T05:11:59;8.18;84.80
67641;SHT31;54434;50.096;20.082;2023-11-21T05:14:36;8.16;84.81
67641;SHT31;54434;50.096;20.082;2023-11-21T05:17:14;8.16;84.87
67641;SHT31;54434;50.096;20.082;2023-11-21T05:19:51;8.15;84.87
67641;SHT31;54434;50.096;20.082;2023-11-21T05:22:28;8.13;84.87
67641;SHT31;54434;50.096;20.082;2023-11-21T05:25:08;8.12;84.90
67641;SHT31;54434;50.096;20.082;2023-11-21T05:27:44;8.11;84.95
67641;SHT31;54434;50.096;20.082;2023-11-21T05:30:21;8.10;85.00
67641;SHT31;54434;50.096;20.082;2023-11-21T05:32:58;8.07;85.10
67641;SHT31;54434;50.096;20.082;2023-11-21T05:35:35;8.07;85.11
67641;SHT31;54434;50.096;20.082;2023-11-21T05:38:11;8.07;85.10
67641;SHT31;54434;50.096;20.082;2023-11-21T05:40:48;8.06;85.16
67641;SHT31;54434;50.096;20.082;2023-11-21T05:43:24;8.04;85.20
67641;SHT31;54434;50.096;20.082;2023-11-21T05:46:02;8.02;85.25
67641;SHT31;54434;50.096;20.082;2023-11-21T05:48:40;8.02;85.25
67641;SHT31;54434;50.096;20.082;2023-11-21T05:51:17;8.02;85.22
67641;SHT31;54434;50.096;20.082;2023-11-21T05:53:56;8.02;85.27
67641;SHT31;54434;50.096;20.082;2023-11-21T05:56:32;8.02;85.30
67641;SHT31;54434;50.096;20.082;2023-11-21T05:59:09;8.01;85.30
67641;SHT31;54434;50.096;20.082;2023-11-21T06:01:46;8.02;85.29
67641;SHT31;54434;50.096;20.082;2023-11-21T06:04:24;8.02;85.29
67641;SHT31;54434;50.096;20.082;2023-11-21T06:07:00;8.02;85.29
67641;SHT31;54434;50.096;20.082;2023-11-21T06:09:38;8.01;85.30
67641;SHT31;54434;50.096;20.082;2023-11-21T06:12:16;8.00;85.35
67641;SHT31;54434;50.096;20.082;2023-11-21T06:14:53;8.00;85.38
67641;SHT31;54434;50.096;20.082;2023-11-21T06:17:29;8.00;85.41
67641;SHT31;54434;50.096;20.082;2023-11-21T06:20:10;8.01;85.44
67641;SHT31;54434;50.096;20.082;2023-11-21T06:22:48;8.01;85.50
67641;SHT31;54434;50.096;20.082;2023-11-21T06:25:26;8.01;85.52
67641;SHT31;54434;50.096;20.082;2023-11-21T06:28:05;8.02;85.53
67641;SHT31;54434;50.096;20.082;2023-11-21T06:30:41;8.02;85.58
67641;SHT31;54434;50.096;20.082;2023-11-21T06:33:18;8.03;85.57
67641;SHT31;54434;50.096;20.082;2023-11-21T06:35:54;8.03;85.60
67641;SHT31;54434;50.096;20.082;2023-11-21T06:38:31;8.05;85.64
67641;SHT31;54434;50.096;20.082;2023-11-21T06:41:08;8.06;85.69
67641;SHT31;54434;50.096;20.082;2023-11-21T06:43:46;8.08;85.70
67641;SHT31;54434;50.096;20.082;2023-11-21T06:46:23;8.10;85.69
67641;SHT31;54434;50.096;20.082;2023-11-21T06:49:00;8.13;85.68
67641;SHT31;54434;50.096;20.082;2023-11-21T06:51:38;8.14;85.69
67641;SHT31;54434;50.096;20.082;2023-11-21T06:54:14;8.16;85.70
67641;SHT31;54434;50.096;20.082;2023-11-21T06:56:52;8.20;85.70
67641;SHT31;54434;50.096;20.082;2023-11-21T06:59:29;8.21;85.69
67641;SHT31;54434;50.096;20.082;2023-11-21T07:02:06;8.25;85.70
67641;SHT31;54434;50.096;20.082;2023-11-21T07:04:42;8.26;85.70
67641;SHT31;54434;50.096;20.082;2023-11-21T07:07:19;8.26;85.70
67641;SHT31;54434;50.096;20.082;2023-11-21T07:09:56;8.28;85.73
67641;SHT31;54434;50.096;20.082;2023-11-21T07:12:41;8.31;85.77
67641;SHT31;54434;50.096;20.082;2023-11-21T07:15:17;8.32;85.77
67641;SHT31;54434;50.096;20.082;2023-11-21T07:17:54;8.33;85.79
67641;SHT31;54434;50.096;20.082;2023-11-21T07:20:31;8.35;85.72
67641;SHT31;54434;50.096;20.082;2023-11-21T07:23:07;8.36;85.70
67641;SHT31;54434;50.096;20.082;2023-11-21T07:25:45;8.38;85.70
67641;SHT31;54434;50.096;20.082;2023-11-21T07:28:21;8.41;85.71
67641;SHT31;54434;50.096;20.082;2023-11-21T07:30:58;8.44;85.70
67641;SHT31;54434;50.096;20.082;2023-11-21T07:33:35;8.46;85.69
67641;SHT31;54434;50.096;20.082;2023-11-21T07:36:13;8.49;85.58
67641;SHT31;54434;50.096;20.082;2023-11-21T07:38:50;8.50;85.50
67641;SHT31;54434;50.096;20.082;2023-11-21T07:41:27;8.52;85.42
67641;SHT31;54434;50.096;20.082;2023-11-21T07:44:05;8.52;85.39
67641;SHT31;54434;50.096;20.082;2023-11-21T07:46:41;8.53;85.37
67641;SHT31;54434;50.096;20.082;2023-11-21T07:49:18;8.55;85.40
67641;SHT31;54434;50.096;20.082;2023-11-21T07:51:55;8.58;85.40
67641;SHT31;54434;50.096;20.082;2023-11-21T07:54:31;8.60;85.30
67641;SHT31;54434;50.096;20.082;2023-11-21T07:57:08;8.61;85.20
67641;SHT31;54434;50.096;20.082;2023-11-21T07:59:45;8.62;85.23
67641;SHT31;54434;50.096;20.082;2023-11-21T08:02:22;8.61;85.21
67641;SHT31;54434;50.096;20.082;2023-11-21T08:04:59;8.60;85.19
67641;SHT31;54434;50.096;20.082;2023-11-21T08:07:36;8.61;85.22
67641;SHT31;54434;50.096;20.082;2023-11-21T08:10:13;8.61;85.26
67641;SHT31;54434;50.096;20.082;2023-11-21T08:12:50;8.63;85.19
67641;SHT31;54434;50.096;20.082;2023-11-21T08:15:26;8.63;85.11
67641;SHT31;54434;50.096;20.082;2023-11-21T08:18:04;8.62;85.14
67641;SHT31;54434;50.096;20.082;2023-11-21T08:20:40;8.61;85.09
67641;SHT31;54434;50.096;20.082;2023-11-21T08:23:19;8.61;85.09
67641;SHT31;54434;50.096;20.082;2023-11-21T08:25:57;8.61;85.15
67641;SHT31;54434;50.096;20.082;2023-11-21T08:28:37;8.63;85.21
67641;SHT31;54434;50.096;20.082;2023-11-21T08:31:14;8.64;85.30
67641;SHT31;54434;50.096;20.082;2023-11-21T08:33:56;8.66;85.27
67641;SHT31;54434;50.096;20.082;2023-11-21T08:36:34;8.68;85.23
67641;SHT31;54434;50.096;20.082;2023-11-21T08:39:14;8.72;85.20
67641;SHT31;54434;50.096;20.082;2023-11-21T08:41:51;8.76;85.22
67641;SHT31;54434;50.096;20.082;2023-11-21T08:44:27;8.83;85.22
67641;SHT31;54434;50.096;20.082;2023-11-21T08:47:04;8.87;85.12
67641;SHT31;54434;50.096;20.082;2023-11-21T08:49:41;8.91;85.09
67641;SHT31;54434;50.096;20.082;2023-11-21T08:52:17;8.96;85.00
67641;SHT31;54434;50.096;20.082;2023-11-21T08:54:55;8.98;84.89
67641;SHT31;54434;50.096;20.082;2023-11-21T08:57:40;8.97;84.89
67641;SHT31;54434;50.096;20.082;2023-11-21T09:00:18;8.98;85.00
67641;SHT31;54434;50.096;20.082;2023-11-21T09:02:55;9.02;85.02
67641;SHT31;54434;50.096;20.082;2023-11-21T09:05:33;9.03;84.93
67641;SHT31;54434;50.096;20.082;2023-11-21T09:08:12;9.04;84.90
67641;SHT31;54434;50.096;20.082;2023-11-21T09:10:48;9.04;84.93
67641;SHT31;54434;50.096;20.082;2023-11-21T09:13:25;9.05;84.88
67641;SHT31;54434;50.096;20.082;2023-11-21T09:16:02;9.04;84.81
67641;SHT31;54434;50.096;20.082;2023-11-21T09:18:39;9.06;84.82
67641;SHT31;54434;50.096;20.082;2023-11-21T09:21:17;9.03;84.59
67641;SHT31;54434;50.096;20.082;2023-11-21T09:23:53;8.98;84.59
67641;SHT31;54434;50.096;20.082;2023-11-21T09:26:30;8.94;84.56
67641;SHT31;54434;50.096;20.082;2023-11-21T09:29:06;8.92;84.65
67641;SHT31;54434;50.096;20.082;2023-11-21T09:31:42;8.92;84.69
67641;SHT31;54434;50.096;20.082;2023-11-21T09:34:19;8.91;84.63
67641;SHT31;54434;50.096;20.082;2023-11-21T09:36:56;8.89;84.58
67641;SHT31;54434;50.096;20.082;2023-11-21T09:39:34;8.86;84.60
67641;SHT31;54434;50.096;20.082;2023-11-21T09:42:12;8.85;84.68
67641;SHT31;54434;50.096;20.082;2023-11-21T09:45:00;8.86;84.70
67641;SHT31;54434;50.096;20.082;2023-11-21T09:47:49;8.85;84.65
67641;SHT31;54434;50.096;20.082;2023-11-21T09:50:27;8.83;84.71
67641;SHT31;54434;50.096;20.082;2023-11-21T09:53:11;8.82;84.78
67641;SHT31;54434;50.096;20.082;2023-11-21T09:55:55;8.83;84.81
67641;SHT31;54434;50.096;20.082;2023-11-21T09:58:34;8.88;84.82
67641;SHT31;54434;50.096;20.082;2023-11-21T10:01:11;8.90;84.79
67641;SHT31;54434;50.096;20.082;2023-11-21T10:03:51;8.93;84.80
67641;SHT31;54434;50.096;20.082;2023-11-21T10:06:28;8.97;84.79
67641;SHT31;54434;50.096;20.082;2023-11-21T10:09:08;9.00;84.83
67641;SHT31;54434;50.096;20.082;2023-11-21T10:11:47;9.03;84.80
67641;SHT31;54434;50.096;20.082;2023-11-21T10:14:25;9.06;84.71
67641;SHT31;54434;50.096;20.082;2023-11-21T10:17:03;9.10;84.56
67641;SHT31;54434;50.096;20.082;2023-11-21T10:19:40;9.13;84.52
67641;SHT31;54434;50.096;20.082;2023-11-21T10:22:19;9.17;84.45
67641;SHT31;54434;50.096;20.082;2023-11-21T10:24:58;9.17;84.40
67641;SHT31;54434;50.096;20.082;2023-11-21T10:27:34;9.20;84.44
67641;SHT31;54434;50.096;20.082;2023-11-21T10:30:12;9.25;84.49
67641;SHT31;54434;50.096;20.082;2023-11-21T10:32:49;9.32;84.48
67641;SHT31;54434;50.096;20.082;2023-11-21T10:35:47;9.40;84.41
67641;SHT31;54434;50.096;20.082;2023-11-21T10:38:26;9.53;84.43
67641;SHT31;54434;50.096;20.082;2023-11-21T10:41:17;9.66;84.10
67641;SHT31;54434;50.096;20.082;2023-11-21T10:43:56;9.77;83.89
67641;SHT31;54434;50.096;20.082;2023-11-21T10:46:33;9.85;83.48
67641;SHT31;54434;50.096;20.082;2023-11-21T10:49:12;9.92;83.31
67641;SHT31;54434;50.096;20.082;2023-11-21T10:51:50;9.99;83.11
67641;SHT31;54434;50.096;20.082;2023-11-21T10:54:28;10.04;82.93
67641;SHT31;54434;50.096;20.082;2023-11-21T10:57:05;10.14;82.80
67641;SHT31;54434;50.096;20.082;2023-11-21T10:59:43;10.20;82.52
67641;SHT31;54434;50.096;20.082;2023-11-21T11:02:24;10.27;82.31
67641;SHT31;54434;50.096;20.082;2023-11-21T11:05:05;10.30;82.08
67641;SHT31;54434;50.096;20.082;2023-11-21T11:07:43;10.31;81.61
67641;SHT31;54434;50.096;20.082;2023-11-21T11:10:26;10.31;81.53
67641;SHT31;54434;50.096;20.082;2023-11-21T11:13:04;10.25;81.32
67641;SHT31;54434;50.096;20.082;2023-11-21T11:15:47;10.18;81.20
67641;SHT31;54434;50.096;20.082;2023-11-21T11:18:27;10.14;81.11
67641;SHT31;54434;50.096;20.082;2023-11-21T11:21:11;10.12;81.35
67641;SHT31;54434;50.096;20.082;2023-11-21T11:24:17;10.10;81.26
67641;SHT31;54434;50.096;20.082;2023-11-21T11:27:23;10.03;81.20
67641;SHT31;54434;50.096;20.082;2023-11-21T11:30:27;9.96;81.16
67641;SHT31;54434;50.096;20.082;2023-11-21T11:33:27;9.87;80.93
67641;SHT31;54434;50.096;20.082;2023-11-21T11:36:15;9.78;80.96
67641;SHT31;54434;50.096;20.082;2023-11-21T11:38:59;9.70;80.87
67641;SHT31;54434;50.096;20.082;2023-11-21T11:41:37;9.61;80.65
67641;SHT31;54434;50.096;20.082;2023-11-21T11:44:49;9.54;80.68
67641;SHT31;54434;50.096;20.082;2023-11-21T11:47:31;9.40;80.92
67641;SHT31;54434;50.096;20.082;2023-11-21T11:50:12;9.34;81.30
67641;SHT31;54434;50.096;20.082;2023-11-21T11:52:52;9.29;81.30
67641;SHT31;54434;50.096;20.082;2023-11-21T11:55:44;9.24;81.40
67641;SHT31;54434;50.096;20.082;2023-11-21T11:58:38;9.23;81.56
67641;SHT31;54434;50.096;20.082;2023-11-21T12:01:18;9.22;81.61
67641;SHT31;54434;50.096;20.082;2023-11-21T12:04:26;9.20;81.84
67641;SHT31;54434;50.096;20.082;2023-11-21T12:07:06;9.18;82.02
67641;SHT31;54434;50.096;20.082;2023-11-21T12:09:46;9.19;81.97
67641;SHT31;54434;50.096;20.082;2023-11-21T12:12:25;9.19;82.02
67641;SHT31;54434;50.096;20.082;2023-11-21T12:15:06;9.23;82.09
67641;SHT31;54434;50.096;20.082;2023-11-21T12:17:46;9.25;81.81
67641;SHT31;54434;50.096;20.082;2023-11-21T12:20:24;9.25;81.65
67641;SHT31;54434;50.096;20.082;2023-11-21T12:23:01;9.28;81.60
67641;SHT31;54434;50.096;20.082;2023-11-21T12:25:38;9.28;81.56
67641;SHT31;54434;50.096;20.082;2023-11-21T12:28:15;9.32;81.58
67641;SHT31;54434;50.096;20.082;2023-11-21T12:30:54;9.35;81.45
67641;SHT31;54434;50.096;20.082;2023-11-21T12:33:46;9.36;81.27
67641;SHT31;54434;50.096;20.082;2023-11-21T12:36:24;9.37;81.16
67641;SHT31;54434;50.096;20.082;2023-11-21T12:39:02;9.39;81.24
67641;SHT31;54434;50.096;20.082;2023-11-21T12:41:41;9.44;81.26
67641;SHT31;54434;50.096;20.082;2023-11-21T12:44:17;9.48;81.14
67641;SHT31;54434;50.096;20.082;2023-11-21T12:46:55;9.51;81.00
67641;SHT31;54434;50.096;20.082;2023-11-21T12:49:33;9.51;80.86
67641;SHT31;54434;50.096;20.082;2023-11-21T12:52:10;9.51;80.70
67641;SHT31;54434;50.096;20.082;2023-11-21T12:54:47;9.50;80.67
67641;SHT31;54434;50.096;20.082;2023-11-21T12:57:26;9.49;80.88
67641;SHT31;54434;50.096;20.082;2023-11-21T13:00:04;9.49;80.72
67641;SHT31;54434;50.096;20.082;2023-11-21T13:02:56;9.49;80.56
67641;SHT31;54434;50.096;20.082;2023-11-21T13:05:34;9.49;80.51
67641;SHT31;54434;50.096;20.082;2023-11-21T13:08:14;9.48;80.38
67641;SHT31;54434;50.096;20.082;2023-11-21T13:10:55;9.46;80.23
67641;SHT31;54434;50.096;20.082;2023-11-21T13:13:32;9.45;80.23
67641;SHT31;54434;50.096;20.082;2023-11-21T13:16:11;9.42;80.32
67641;SHT31;54434;50.096;20.082;2023-11-21T13:18:47;9.40;80.35
67641;SHT31;54434;50.096;20.082;2023-11-21T13:21:24;9.36;80.45
67641;SHT31;54434;50.096;20.082;2023-11-21T13:24:01;9.31;80.47
67641;SHT31;54434;50.096;20.082;2023-11-21T13:26:38;9.27;80.47
67641;SHT31;54434;50.096;20.082;2023-11-21T13:29:17;9.21;80.62
67641;SHT31;54434;50.096;20.082;2023-11-21T13:31:54;9.18;80.64
67641;SHT31;54434;50.096;20.082;2023-11-21T13:34:31;9.15;80.86
67641;SHT31;54434;50.096;20.082;2023-11-21T13:37:08;9.12;81.00
67641;SHT31;54434;50.096;20.082;2023-11-21T13:39:45;9.10;81.16
67641;SHT31;54434;50.096;20.082;2023-11-21T13:42:23;9.09;81.31
67641;SHT31;54434;50.096;20.082;2023-11-21T13:45:00;9.07;81.36
67641;SHT31;54434;50.096;20.082;2023-11-21T13:47:38;9.06;81.40
67641;SHT31;54434;50.096;20.082;2023-11-21T13:50:17;9.06;81.41
67641;SHT31;54434;50.096;20.082;2023-11-21T13:52:58;9.07;81.35
67641;SHT31;54434;50.096;20.082;2023-11-21T13:55:42;9.11;81.47
67641;SHT31;54434;50.096;20.082;2023-11-21T13:58:21;9.13;81.51
67641;SHT31;54434;50.096;20.082;2023-11-21T14:01:11;9.15;81.52
67641;SHT31;54434;50.096;20.082;2023-11-21T14:04:09;9.18;81.41
67641;SHT31;54434;50.096;20.082;2023-11-21T14:06:53;9.18;81.20
67641;SHT31;54434;50.096;20.082;2023-11-21T14:09:33;9.19;81.19
67641;SHT31;54434;50.096;20.082;2023-11-21T14:12:16;9.19;80.99
67641;SHT31;54434;50.096;20.082;2023-11-21T14:14:53;9.19;80.63
67641;SHT31;54434;50.096;20.082;2023-11-21T14:17:30;9.21;80.61
67641;SHT31;54434;50.096;20.082;2023-11-21T14:20:10;9.21;80.67
67641;SHT31;54434;50.096;20.082;2023-11-21T14:22:49;9.22;80.80
67641;SHT31;54434;50.096;20.082;2023-11-21T14:25:26;9.20;80.37
67641;SHT31;54434;50.096;20.082;2023-11-21T14:28:04;9.18;79.89
67641;SHT31;54434;50.096;20.082;2023-11-21T14:30:43;9.16;79.80
67641;SHT31;54434;50.096;20.082;2023-11-21T14:33:20;9.15;79.71
67641;SHT31;54434;50.096;20.082;2023-11-21T14:35:56;9.12;79.53
67641;SHT31;54434;50.096;20.082;2023-11-21T14:38:33;9.07;79.50
67641;SHT31;54434;50.096;20.082;2023-11-21T14:41:11;9.02;79.45
67641;SHT31;54434;50.096;20.082;2023-11-21T14:43:48;8.97;79.15
67641;SHT31;54434;50.096;20.082;2023-11-21T14:46:27;8.94;79.12
67641;SHT31;54434;50.096;20.082;2023-11-21T14:49:06;8.90;79.24
67641;SHT31;54434;50.096;20.082;2023-11-21T14:51:53;8.88;79.39
67641;SHT31;54434;50.096;20.082;2023-11-21T14:54:34;8.85;79.40
67641;SHT31;54434;50.096;20.082;2023-11-21T14:57:18;8.82;79.53
67641;SHT31;54434;50.096;20.082;2023-11-21T14:59:54;8.79;79.54
67641;SHT31;54434;50.096;20.082;2023-11-21T15:02:32;8.76;79.61
67641;SHT31;54434;50.096;20.082;2023-11-21T15:05:22;8.73;79.71
67641;SHT31;54434;50.096;20.082;2023-11-21T15:07:59;8.71;79.82
67641;SHT31;54434;50.096;20.082;2023-11-21T15:10:55;8.67;79.81
67641;SHT31;54434;50.096;20.082;2023-11-21T15:13:32;8.63;79.98
67641;SHT31;54434;50.096;20.082;2023-11-21T15:16:10;8.59;80.12
67641;SHT31;54434;50.096;20.082;2023-11-21T15:18:46;8.56;80.17
67641;SHT31;54434;50.096;20.082;2023-11-21T15:21:23;8.55;80.12
67641;SHT31;54434;50.096;20.082;2023-11-21T15:23:59;8.52;80.28
67641;SHT31;54434;50.096;20.082;2023-11-21T15:26:38;8.50;80.35
67641;SHT31;54434;50.096;20.082;2023-11-21T15:29:15;8.49;80.49
67641;SHT31;54434;50.096;20.082;2023-11-21T15:31:53;8.49;80.56
67641;SHT31;54434;50.096;20.082;2023-11-21T15:34:30;8.47;80.76
67641;SHT31;54434;50.096;20.082;2023-11-21T15:37:10;8.48;80.80
67641;SHT31;54434;50.096;20.082;2023-11-21T15:39:49;8.46;80.81
67641;SHT31;54434;50.096;20.082;2023-11-21T15:42:27;8.44;80.81
67641;SHT31;54434;50.096;20.082;2023-11-21T15:45:04;8.43;80.84
67641;SHT31;54434;50.096;20.082;2023-11-21T15:47:43;8.41;80.94
67641;SHT31;54434;50.096;20.082;2023-11-21T15:50:19;8.39;81.00
67641;SHT31;54434;50.096;20.082;2023-11-21T15:52:56;8.37;81.04
67641;SHT31;54434;50.096;20.082;2023-11-21T15:55:36;8.36;80.98
67641;SHT31;54434;50.096;20.082;2023-11-21T15:58:14;8.35;80.93
67641;SHT31;54434;50.096;20.082;2023-11-21T16:00:51;8.35;80.96
67641;SHT31;54434;50.096;20.082;2023-11-21T16:03:29;8.34;80.98
67641;SHT31;54434;50.096;20.082;2023-11-21T16:06:07;8.33;80.97
67641;SHT31;54434;50.096;20.082;2023-11-21T16:08:44;8.31;81.00
67641;SHT31;54434;50.096;20.082;2023-11-21T16:11:20;8.30;81.07
67641;SHT31;54434;50.096;20.082;2023-11-21T16:13:57;8.30;81.04
67641;SHT31;54434;50.096;20.082;2023-11-21T16:16:34;8.29;81.02
67641;SHT31;54434;50.096;20.082;2023-11-21T16:19:11;8.30;81.10
67641;SHT31;54434;50.096;20.082;2023-11-21T16:21:48;8.28;81.11
67641;SHT31;54434;50.096;20.082;2023-11-21T16:24:25;8.26;81.10
67641;SHT31;54434;50.096;20.082;2023-11-21T16:27:02;8.26;81.16
67641;SHT31;54434;50.096;20.082;2023-11-21T16:29:43;8.25;81.19
67641;SHT31;54434;50.096;20.082;2023-11-21T16:32:20;8.24;81.22
67641;SHT31;54434;50.096;20.082;2023-11-21T16:34:58;8.24;81.22
67641;SHT31;54434;50.096;20.082;2023-11-21T16:37:35;8.23;81.29
67641;SHT31;54434;50.096;20.082;2023-11-21T16:40:15;8.23;81.29
67641;SHT31;54434;50.096;20.082;2023-11-21T16:42:53;8.23;81.29